sensor_id;sensor_type;location;lat;lon;timestamp;P1;durP1;ratioP1;P2;durP2;ratioP2
23634;SDS011;11994;51.038;16.974;2022-08-01T00:01:03;5.72;;;2.42;;
23634;SDS011;11994;51.038;16.974;2022-08-01T00:03:29;4.35;;;2.10;;
23634;SDS011;11994;51.038;16.974;2022-08-01T00:05:55;3.98;;;2.27;;
23634;SDS011;11994;51.038;16.974;2022-08-01T00:08:21;5.10;;;2.08;;
23634;SDS011;11994;51.038;16.974;2022-08-01T00:10:46;5.53;;;2.37;;
23634;SDS011;11994;51.038;16.974;2022-08-01T00:13:12;5.22;;;2.75;;
23634;SDS011;11994;51.038;16.974;2022-08-01T00:15:38;5.03;;;2.60;;
23634;SDS011;11994;51.038;16.974;2022-08-01T00:18:04;5.15;;;2.92;;
23634;SDS011;11994;51.038;16.974;2022-08-01T00:20:30;5.90;;;2.70;;
23634;SDS011;11994;51.038;16.974;2022-08-01T00:22:56;6.17;;;2.72;;
23634;SDS011;11994;51.038;16.974;2022-08-01T00:25:22;4.33;;;2.80;;
23634;SDS011;11994;51.038;16.974;2022-08-01T00:27:47;4.58;;;2.62;;
23634;SDS011;11994;51.038;16.974;2022-08-01T00:30:13;4.78;;;2.40;;
23634;SDS011;11994;51.038;16.974;2022-08-01T00:32:39;4.37;;;2.30;;
23634;SDS011;11994;51.038;16.974;2022-08-01T00:35:07;3.50;;;2.20;;
23634;SDS011;11994;51.038;16.974;2022-08-01T00:37:33;5.62;;;2.42;;
23634;SDS011;11994;51.038;16.974;2022-08-01T00:39:58;4.80;;;2.25;;
23634;SDS011;11994;51.038;16.974;2022-08-01T00:42:24;4.80;;;2.50;;
23634;SDS011;11994;51.038;16.974;2022-08-01T00:44:50;3.47;;;2.50;;
23634;SDS011;11994;51.038;16.974;2022-08-01T00:47:16;6.85;;;2.30;;
23634;SDS011;11994;51.038;16.974;2022-08-01T00:49:42;4.60;;;2.72;;
23634;SDS011;11994;51.038;16.974;2022-08-01T00:52:08;4.47;;;2.40;;
23634;SDS011;11994;51.038;16.974;2022-08-01T00:54:35;4.45;;;2.40;;
23634;SDS011;11994;51.038;16.974;2022-08-01T00:57:01;3.52;;;2.25;;
23634;SDS011;11994;51.038;16.974;2022-08-01T00:59:28;3.52;;;2.15;;
23634;SDS011;11994;51.038;16.974;2022-08-01T01:01:55;5.50;;;2.45;;
23634;SDS011;11994;51.038;16.974;2022-08-01T01:04:21;5.95;;;2.65;;
23634;SDS011;11994;51.038;16.974;2022-08-01T01:09:44;4.87;;;2.20;;
23634;SDS011;11994;51.038;16.974;2022-08-01T01:12:30;10.28;;;2.30;;
23634;SDS011;11994;51.038;16.974;2022-08-01T01:17:41;5.50;;;2.20;;
23634;SDS011;11994;51.038;16.974;2022-08-01T01:20:18;4.45;;;2.02;;
23634;SDS011;11994;51.038;16.974;2022-08-01T01:31:25;3.80;;;2.50;;
23634;SDS011;11994;51.038;16.974;2022-08-01T01:33:53;5.58;;;2.72;;
23634;SDS011;11994;51.038;16.974;2022-08-01T01:36:21;3.65;;;2.17;;
23634;SDS011;11994;51.038;16.974;2022-08-01T01:38:49;5.17;;;2.40;;
23634;SDS011;11994;51.038;16.974;2022-08-01T01:41:17;4.05;;;2.40;;
23634;SDS011;11994;51.038;16.974;2022-08-01T01:43:45;7.15;;;2.70;;
23634;SDS011;11994;51.038;16.974;2022-08-01T01:46:12;5.03;;;2.58;;
23634;SDS011;11994;51.038;16.974;2022-08-01T01:48:41;5.62;;;2.92;;
23634;SDS011;11994;51.038;16.974;2022-08-01T01:51:10;3.40;;;2.20;;
23634;SDS011;11994;51.038;16.974;2022-08-01T01:53:38;3.37;;;2.45;;
23634;SDS011;11994;51.038;16.974;2022-08-01T01:56:06;4.08;;;2.22;;
23634;SDS011;11994;51.038;16.974;2022-08-01T01:58:35;5.12;;;2.20;;
23634;SDS011;11994;51.038;16.974;2022-08-01T02:01:04;3.47;;;2.10;;
23634;SDS011;11994;51.038;16.974;2022-08-01T02:03:34;4.90;;;2.20;;
23634;SDS011;11994;51.038;16.974;2022-08-01T02:06:02;5.10;;;2.58;;
23634;SDS011;11994;51.038;16.974;2022-08-01T02:08:29;6.35;;;2.55;;
23634;SDS011;11994;51.038;16.974;2022-08-01T02:10:58;5.20;;;2.33;;
23634;SDS011;11994;51.038;16.974;2022-08-01T02:13:43;3.90;;;2.50;;
23634;SDS011;11994;51.038;16.974;2022-08-01T02:16:25;5.57;;;2.80;;
23634;SDS011;11994;51.038;16.974;2022-08-01T02:18:54;6.15;;;2.55;;
23634;SDS011;11994;51.038;16.974;2022-08-01T02:21:26;5.70;;;3.02;;
23634;SDS011;11994;51.038;16.974;2022-08-01T02:24:03;7.22;;;3.30;;
23634;SDS011;11994;51.038;16.974;2022-08-01T02:26:35;8.55;;;3.62;;
23634;SDS011;11994;51.038;16.974;2022-08-01T02:29:06;6.33;;;3.45;;
23634;SDS011;11994;51.038;16.974;2022-08-01T02:31:37;5.03;;;3.35;;
23634;SDS011;11994;51.038;16.974;2022-08-01T02:34:06;6.33;;;3.50;;
23634;SDS011;11994;51.038;16.974;2022-08-01T02:36:35;6.87;;;3.30;;
23634;SDS011;11994;51.038;16.974;2022-08-01T02:39:09;7.85;;;3.40;;
23634;SDS011;11994;51.038;16.974;2022-08-01T02:41:40;4.00;;;2.72;;
23634;SDS011;11994;51.038;16.974;2022-08-01T02:44:09;4.90;;;3.15;;
23634;SDS011;11994;51.038;16.974;2022-08-01T02:46:49;5.87;;;3.72;;
23634;SDS011;11994;51.038;16.974;2022-08-01T02:49:20;8.23;;;3.40;;
23634;SDS011;11994;51.038;16.974;2022-08-01T02:51:49;8.15;;;4.15;;
23634;SDS011;11994;51.038;16.974;2022-08-01T02:54:18;10.00;;;6.33;;
23634;SDS011;11994;51.038;16.974;2022-08-01T02:56:47;15.13;;;7.67;;
23634;SDS011;11994;51.038;16.974;2022-08-01T02:59:16;10.68;;;6.05;;
23634;SDS011;11994;51.038;16.974;2022-08-01T03:01:44;7.28;;;4.47;;
23634;SDS011;11994;51.038;16.974;2022-08-01T03:04:12;8.10;;;3.95;;
23634;SDS011;11994;51.038;16.974;2022-08-01T03:06:40;5.37;;;3.62;;
23634;SDS011;11994;51.038;16.974;2022-08-01T03:09:06;8.10;;;4.05;;
23634;SDS011;11994;51.038;16.974;2022-08-01T03:11:34;7.15;;;4.17;;
23634;SDS011;11994;51.038;16.974;2022-08-01T03:14:04;5.95;;;4.10;;
23634;SDS011;11994;51.038;16.974;2022-08-01T03:16:33;7.47;;;4.40;;
23634;SDS011;11994;51.038;16.974;2022-08-01T03:19:02;6.97;;;4.17;;
23634;SDS011;11994;51.038;16.974;2022-08-01T03:21:30;4.50;;;3.52;;
23634;SDS011;11994;51.038;16.974;2022-08-01T03:23:58;5.37;;;4.10;;
23634;SDS011;11994;51.038;16.974;2022-08-01T03:26:29;6.50;;;4.85;;
23634;SDS011;11994;51.038;16.974;2022-08-01T03:28:59;9.35;;;4.90;;
23634;SDS011;11994;51.038;16.974;2022-08-01T03:31:35;6.17;;;4.92;;
23634;SDS011;11994;51.038;16.974;2022-08-01T03:34:03;7.50;;;5.42;;
23634;SDS011;11994;51.038;16.974;2022-08-01T03:36:31;7.37;;;5.50;;
23634;SDS011;11994;51.038;16.974;2022-08-01T03:38:59;8.08;;;5.37;;
23634;SDS011;11994;51.038;16.974;2022-08-01T03:41:29;7.60;;;5.37;;
23634;SDS011;11994;51.038;16.974;2022-08-01T03:44:03;8.00;;;5.33;;
23634;SDS011;11994;51.038;16.974;2022-08-01T03:46:41;9.95;;;5.22;;
23634;SDS011;11994;51.038;16.974;2022-08-01T03:49:22;8.03;;;5.72;;
23634;SDS011;11994;51.038;16.974;2022-08-01T03:51:47;8.03;;;5.35;;
23634;SDS011;11994;51.038;16.974;2022-08-01T03:54:20;5.47;;;4.70;;
23634;SDS011;11994;51.038;16.974;2022-08-01T03:56:49;7.92;;;4.75;;
23634;SDS011;11994;51.038;16.974;2022-08-01T03:59:17;7.12;;;4.95;;
23634;SDS011;11994;51.038;16.974;2022-08-01T04:01:44;9.10;;;5.00;;
23634;SDS011;11994;51.038;16.974;2022-08-01T04:04:11;6.55;;;4.83;;
23634;SDS011;11994;51.038;16.974;2022-08-01T04:06:39;8.40;;;5.20;;
23634;SDS011;11994;51.038;16.974;2022-08-01T04:09:07;6.72;;;5.12;;
23634;SDS011;11994;51.038;16.974;2022-08-01T04:11:33;11.60;;;4.95;;
23634;SDS011;11994;51.038;16.974;2022-08-01T04:13:59;6.30;;;4.97;;
23634;SDS011;11994;51.038;16.974;2022-08-01T04:16:25;6.92;;;5.08;;
23634;SDS011;11994;51.038;16.974;2022-08-01T04:18:51;8.20;;;5.05;;
23634;SDS011;11994;51.038;16.974;2022-08-01T04:21:22;7.03;;;5.00;;
23634;SDS011;11994;51.038;16.974;2022-08-01T04:23:52;7.85;;;5.95;;
23634;SDS011;11994;51.038;16.974;2022-08-01T04:26:19;10.03;;;5.58;;
23634;SDS011;11994;51.038;16.974;2022-08-01T04:28:48;7.90;;;5.05;;
23634;SDS011;11994;51.038;16.974;2022-08-01T04:31:15;9.13;;;5.37;;
23634;SDS011;11994;51.038;16.974;2022-08-01T04:33:43;8.48;;;5.95;;
23634;SDS011;11994;51.038;16.974;2022-08-01T04:36:13;10.15;;;5.58;;
23634;SDS011;11994;51.038;16.974;2022-08-01T04:38:44;7.42;;;6.15;;
23634;SDS011;11994;51.038;16.974;2022-08-01T04:43:40;8.38;;;4.92;;
23634;SDS011;11994;51.038;16.974;2022-08-01T04:46:06;8.28;;;5.08;;
23634;SDS011;11994;51.038;16.974;2022-08-01T04:48:37;6.78;;;4.90;;
23634;SDS011;11994;51.038;16.974;2022-08-01T04:51:10;8.65;;;5.05;;
23634;SDS011;11994;51.038;16.974;2022-08-01T04:53:43;5.90;;;5.28;;
23634;SDS011;11994;51.038;16.974;2022-08-01T04:56:11;7.05;;;4.58;;
23634;SDS011;11994;51.038;16.974;2022-08-01T04:58:41;7.05;;;4.50;;
23634;SDS011;11994;51.038;16.974;2022-08-01T05:01:08;7.60;;;4.85;;
23634;SDS011;11994;51.038;16.974;2022-08-01T05:03:35;6.35;;;4.65;;
23634;SDS011;11994;51.038;16.974;2022-08-01T05:06:01;6.40;;;4.80;;
23634;SDS011;11994;51.038;16.974;2022-08-01T05:08:27;7.55;;;4.70;;
23634;SDS011;11994;51.038;16.974;2022-08-01T05:10:53;5.22;;;4.17;;
23634;SDS011;11994;51.038;16.974;2022-08-01T05:13:20;5.53;;;4.20;;
23634;SDS011;11994;51.038;16.974;2022-08-01T05:15:46;5.53;;;4.20;;
23634;SDS011;11994;51.038;16.974;2022-08-01T05:18:11;8.53;;;4.42;;
23634;SDS011;11994;51.038;16.974;2022-08-01T05:20:38;7.67;;;4.53;;
23634;SDS011;11994;51.038;16.974;2022-08-01T05:23:04;5.15;;;4.35;;
23634;SDS011;11994;51.038;16.974;2022-08-01T05:25:30;8.83;;;4.58;;
23634;SDS011;11994;51.038;16.974;2022-08-01T05:27:56;5.33;;;4.00;;
23634;SDS011;11994;51.038;16.974;2022-08-01T05:30:22;9.23;;;4.05;;
23634;SDS011;11994;51.038;16.974;2022-08-01T05:32:48;10.10;;;4.37;;
23634;SDS011;11994;51.038;16.974;2022-08-01T05:35:13;5.75;;;3.90;;
23634;SDS011;11994;51.038;16.974;2022-08-01T05:37:39;6.08;;;4.22;;
23634;SDS011;11994;51.038;16.974;2022-08-01T05:40:06;5.97;;;4.47;;
23634;SDS011;11994;51.038;16.974;2022-08-01T05:42:33;15.08;;;6.37;;
23634;SDS011;11994;51.038;16.974;2022-08-01T05:44:59;6.15;;;3.65;;
23634;SDS011;11994;51.038;16.974;2022-08-01T05:47:25;7.33;;;4.12;;
23634;SDS011;11994;51.038;16.974;2022-08-01T05:49:51;5.90;;;3.85;;
23634;SDS011;11994;51.038;16.974;2022-08-01T05:52:17;5.53;;;4.10;;
23634;SDS011;11994;51.038;16.974;2022-08-01T05:54:42;11.15;;;4.75;;
23634;SDS011;11994;51.038;16.974;2022-08-01T05:57:08;5.10;;;4.20;;
23634;SDS011;11994;51.038;16.974;2022-08-01T05:59:34;5.58;;;4.03;;
23634;SDS011;11994;51.038;16.974;2022-08-01T06:02:00;7.50;;;4.53;;
23634;SDS011;11994;51.038;16.974;2022-08-01T06:04:26;4.87;;;3.90;;
23634;SDS011;11994;51.038;16.974;2022-08-01T06:06:52;6.58;;;4.17;;
23634;SDS011;11994;51.038;16.974;2022-08-01T06:09:18;5.92;;;4.08;;
23634;SDS011;11994;51.038;16.974;2022-08-01T06:11:44;6.35;;;3.87;;
23634;SDS011;11994;51.038;16.974;2022-08-01T06:14:09;6.92;;;4.20;;
23634;SDS011;11994;51.038;16.974;2022-08-01T06:16:35;4.85;;;4.03;;
23634;SDS011;11994;51.038;16.974;2022-08-01T06:19:01;8.75;;;4.28;;
23634;SDS011;11994;51.038;16.974;2022-08-01T06:21:27;6.72;;;4.25;;
23634;SDS011;11994;51.038;16.974;2022-08-01T06:23:53;6.40;;;4.37;;
23634;SDS011;11994;51.038;16.974;2022-08-01T06:26:18;6.45;;;3.50;;
23634;SDS011;11994;51.038;16.974;2022-08-01T06:28:45;8.05;;;3.55;;
23634;SDS011;11994;51.038;16.974;2022-08-01T06:31:11;7.10;;;2.95;;
23634;SDS011;11994;51.038;16.974;2022-08-01T06:33:38;6.15;;;3.30;;
23634;SDS011;11994;51.038;16.974;2022-08-01T06:36:04;7.12;;;2.98;;
23634;SDS011;11994;51.038;16.974;2022-08-01T06:38:30;5.45;;;2.85;;
23634;SDS011;11994;51.038;16.974;2022-08-01T06:40:56;6.60;;;3.50;;
23634;SDS011;11994;51.038;16.974;2022-08-01T06:43:22;4.67;;;3.20;;
23634;SDS011;11994;51.038;16.974;2022-08-01T06:45:48;4.28;;;2.70;;
23634;SDS011;11994;51.038;16.974;2022-08-01T06:48:14;5.95;;;2.80;;
23634;SDS011;11994;51.038;16.974;2022-08-01T06:50:40;6.90;;;3.20;;
23634;SDS011;11994;51.038;16.974;2022-08-01T06:53:07;4.03;;;2.98;;
23634;SDS011;11994;51.038;16.974;2022-08-01T06:55:33;6.75;;;3.22;;
23634;SDS011;11994;51.038;16.974;2022-08-01T06:57:59;6.33;;;2.77;;
23634;SDS011;11994;51.038;16.974;2022-08-01T07:00:25;6.15;;;2.60;;
23634;SDS011;11994;51.038;16.974;2022-08-01T07:02:53;5.78;;;3.00;;
23634;SDS011;11994;51.038;16.974;2022-08-01T07:05:21;5.12;;;3.00;;
23634;SDS011;11994;51.038;16.974;2022-08-01T07:07:48;7.65;;;2.98;;
23634;SDS011;11994;51.038;16.974;2022-08-01T07:10:14;5.25;;;3.02;;
23634;SDS011;11994;51.038;16.974;2022-08-01T07:12:40;9.15;;;3.22;;
23634;SDS011;11994;51.038;16.974;2022-08-01T07:15:07;7.40;;;3.40;;
23634;SDS011;11994;51.038;16.974;2022-08-01T07:17:37;5.95;;;2.95;;
23634;SDS011;11994;51.038;16.974;2022-08-01T07:20:06;7.12;;;3.22;;
23634;SDS011;11994;51.038;16.974;2022-08-01T07:22:34;5.85;;;2.95;;
23634;SDS011;11994;51.038;16.974;2022-08-01T07:25:00;7.67;;;2.62;;
23634;SDS011;11994;51.038;16.974;2022-08-01T07:27:26;7.25;;;2.52;;
23634;SDS011;11994;51.038;16.974;2022-08-01T07:29:52;7.12;;;2.72;;
23634;SDS011;11994;51.038;16.974;2022-08-01T07:32:18;9.08;;;2.92;;
23634;SDS011;11994;51.038;16.974;2022-08-01T07:34:43;6.15;;;2.87;;
23634;SDS011;11994;51.038;16.974;2022-08-01T07:37:09;9.15;;;2.90;;
23634;SDS011;11994;51.038;16.974;2022-08-01T07:39:35;4.72;;;2.55;;
23634;SDS011;11994;51.038;16.974;2022-08-01T07:42:01;5.50;;;2.90;;
23634;SDS011;11994;51.038;16.974;2022-08-01T07:44:26;6.05;;;2.60;;
23634;SDS011;11994;51.038;16.974;2022-08-01T07:46:52;12.20;;;3.27;;
23634;SDS011;11994;51.038;16.974;2022-08-01T07:49:18;4.62;;;2.72;;
23634;SDS011;11994;51.038;16.974;2022-08-01T07:51:44;4.97;;;2.83;;
23634;SDS011;11994;51.038;16.974;2022-08-01T07:54:10;6.12;;;3.20;;
23634;SDS011;11994;51.038;16.974;2022-08-01T07:56:36;4.92;;;2.77;;
23634;SDS011;11994;51.038;16.974;2022-08-01T07:59:01;5.12;;;2.80;;
23634;SDS011;11994;51.038;16.974;2022-08-01T08:01:27;5.05;;;2.60;;
23634;SDS011;11994;51.038;16.974;2022-08-01T08:03:53;8.38;;;2.85;;
23634;SDS011;11994;51.038;16.974;2022-08-01T08:06:19;4.28;;;2.70;;
23634;SDS011;11994;51.038;16.974;2022-08-01T08:08:45;3.20;;;2.80;;
23634;SDS011;11994;51.038;16.974;2022-08-01T08:11:11;7.53;;;2.92;;
23634;SDS011;11994;51.038;16.974;2022-08-01T08:13:37;6.87;;;2.90;;
23634;SDS011;11994;51.038;16.974;2022-08-01T08:16:03;4.72;;;2.27;;
23634;SDS011;11994;51.038;16.974;2022-08-01T08:18:29;3.33;;;2.15;;
23634;SDS011;11994;51.038;16.974;2022-08-01T08:20:55;6.80;;;2.52;;
23634;SDS011;11994;51.038;16.974;2022-08-01T08:23:20;8.80;;;3.00;;
23634;SDS011;11994;51.038;16.974;2022-08-01T08:26:05;6.10;;;3.15;;
23634;SDS011;11994;51.038;16.974;2022-08-01T08:28:31;9.60;;;3.05;;
23634;SDS011;11994;51.038;16.974;2022-08-01T08:30:57;6.55;;;3.17;;
23634;SDS011;11994;51.038;16.974;2022-08-01T08:33:23;6.33;;;3.17;;
23634;SDS011;11994;51.038;16.974;2022-08-01T08:35:48;7.60;;;3.60;;
23634;SDS011;11994;51.038;16.974;2022-08-01T08:38:14;7.75;;;3.40;;
23634;SDS011;11994;51.038;16.974;2022-08-01T08:40:40;4.70;;;2.92;;
23634;SDS011;11994;51.038;16.974;2022-08-01T08:43:06;6.97;;;3.10;;
23634;SDS011;11994;51.038;16.974;2022-08-01T08:45:32;6.47;;;2.83;;
23634;SDS011;11994;51.038;16.974;2022-08-01T08:47:58;5.53;;;2.70;;
23634;SDS011;11994;51.038;16.974;2022-08-01T08:50:25;6.12;;;2.80;;
23634;SDS011;11994;51.038;16.974;2022-08-01T08:52:55;5.33;;;2.35;;
23634;SDS011;11994;51.038;16.974;2022-08-01T08:55:21;5.75;;;3.02;;
23634;SDS011;11994;51.038;16.974;2022-08-01T08:57:49;4.37;;;3.17;;
23634;SDS011;11994;51.038;16.974;2022-08-01T09:00:18;5.15;;;3.10;;
23634;SDS011;11994;51.038;16.974;2022-08-01T09:02:44;6.05;;;2.85;;
23634;SDS011;11994;51.038;16.974;2022-08-01T09:05:13;5.65;;;3.02;;
23634;SDS011;11994;51.038;16.974;2022-08-01T09:07:40;6.80;;;3.60;;
23634;SDS011;11994;51.038;16.974;2022-08-01T09:10:06;5.50;;;3.00;;
23634;SDS011;11994;51.038;16.974;2022-08-01T09:12:35;5.85;;;3.30;;
23634;SDS011;11994;51.038;16.974;2022-08-01T09:15:02;9.03;;;3.20;;
23634;SDS011;11994;51.038;16.974;2022-08-01T09:17:38;8.10;;;3.35;;
23634;SDS011;11994;51.038;16.974;2022-08-01T09:20:06;7.25;;;3.12;;
23634;SDS011;11994;51.038;16.974;2022-08-01T09:22:33;8.43;;;3.27;;
23634;SDS011;11994;51.038;16.974;2022-08-01T09:25:03;5.97;;;2.83;;
23634;SDS011;11994;51.038;16.974;2022-08-01T09:27:35;4.47;;;3.27;;
23634;SDS011;11994;51.038;16.974;2022-08-01T09:30:11;10.65;;;3.25;;
23634;SDS011;11994;51.038;16.974;2022-08-01T09:32:52;8.63;;;3.70;;
23634;SDS011;11994;51.038;16.974;2022-08-01T09:35:29;5.62;;;3.40;;
23634;SDS011;11994;51.038;16.974;2022-08-01T09:38:18;3.77;;;3.20;;
23634;SDS011;11994;51.038;16.974;2022-08-01T09:40:48;6.53;;;3.35;;
23634;SDS011;11994;51.038;16.974;2022-08-01T09:43:19;8.28;;;3.90;;
23634;SDS011;11994;51.038;16.974;2022-08-01T09:45:49;6.12;;;3.25;;
23634;SDS011;11994;51.038;16.974;2022-08-01T09:48:15;3.95;;;3.27;;
23634;SDS011;11994;51.038;16.974;2022-08-01T09:50:42;4.08;;;2.75;;
23634;SDS011;11994;51.038;16.974;2022-08-01T09:53:11;4.25;;;3.05;;
23634;SDS011;11994;51.038;16.974;2022-08-01T09:55:37;7.95;;;2.75;;
23634;SDS011;11994;51.038;16.974;2022-08-01T09:58:05;4.65;;;2.80;;
23634;SDS011;11994;51.038;16.974;2022-08-01T10:00:32;6.53;;;2.83;;
23634;SDS011;11994;51.038;16.974;2022-08-01T10:03:00;6.22;;;3.25;;
23634;SDS011;11994;51.038;16.974;2022-08-01T10:05:49;6.95;;;3.42;;
23634;SDS011;11994;51.038;16.974;2022-08-01T10:08:16;4.80;;;3.17;;
23634;SDS011;11994;51.038;16.974;2022-08-01T10:11:04;3.90;;;2.77;;
23634;SDS011;11994;51.038;16.974;2022-08-01T10:13:32;6.40;;;2.90;;
23634;SDS011;11994;51.038;16.974;2022-08-01T10:15:57;4.97;;;3.20;;
23634;SDS011;11994;51.038;16.974;2022-08-01T10:18:25;6.90;;;2.80;;
23634;SDS011;11994;51.038;16.974;2022-08-01T10:20:55;5.83;;;3.00;;
23634;SDS011;11994;51.038;16.974;2022-08-01T10:23:21;6.03;;;3.20;;
23634;SDS011;11994;51.038;16.974;2022-08-01T10:25:48;8.90;;;3.02;;
23634;SDS011;11994;51.038;16.974;2022-08-01T10:28:16;4.00;;;3.00;;
23634;SDS011;11994;51.038;16.974;2022-08-01T10:30:44;7.12;;;2.90;;
23634;SDS011;11994;51.038;16.974;2022-08-01T10:33:12;4.72;;;2.95;;
23634;SDS011;11994;51.038;16.974;2022-08-01T10:35:39;4.78;;;2.87;;
23634;SDS011;11994;51.038;16.974;2022-08-01T10:38:05;4.45;;;2.45;;
23634;SDS011;11994;51.038;16.974;2022-08-01T10:40:32;4.83;;;2.95;;
23634;SDS011;11994;51.038;16.974;2022-08-01T10:42:59;5.03;;;2.92;;
23634;SDS011;11994;51.038;16.974;2022-08-01T10:45:25;5.95;;;2.87;;
23634;SDS011;11994;51.038;16.974;2022-08-01T10:48:09;5.20;;;2.83;;
23634;SDS011;11994;51.038;16.974;2022-08-01T10:50:53;5.22;;;2.70;;
23634;SDS011;11994;51.038;16.974;2022-08-01T10:53:25;7.37;;;2.87;;
23634;SDS011;11994;51.038;16.974;2022-08-01T10:58:27;7.30;;;2.80;;
23634;SDS011;11994;51.038;16.974;2022-08-01T11:01:17;4.28;;;3.00;;
23634;SDS011;11994;51.038;16.974;2022-08-01T11:11:32;6.92;;;3.33;;
23634;SDS011;11994;51.038;16.974;2022-08-01T11:14:04;5.87;;;2.67;;
23634;SDS011;11994;51.038;16.974;2022-08-01T11:16:39;7.45;;;3.20;;
23634;SDS011;11994;51.038;16.974;2022-08-01T11:19:06;4.85;;;3.17;;
23634;SDS011;11994;51.038;16.974;2022-08-01T11:27:20;7.33;;;3.30;;
23634;SDS011;11994;51.038;16.974;2022-08-01T11:32:45;3.90;;;2.60;;
23634;SDS011;11994;51.038;16.974;2022-08-01T11:35:21;4.75;;;2.85;;
23634;SDS011;11994;51.038;16.974;2022-08-01T11:37:51;5.22;;;2.67;;
23634;SDS011;11994;51.038;16.974;2022-08-01T11:45:48;4.50;;;2.58;;
23634;SDS011;11994;51.038;16.974;2022-08-01T11:48:25;5.25;;;2.80;;
23634;SDS011;11994;51.038;16.974;2022-08-01T11:50:50;7.33;;;3.08;;
23634;SDS011;11994;51.038;16.974;2022-08-01T11:53:18;4.85;;;2.70;;
23634;SDS011;11994;51.038;16.974;2022-08-01T11:55:46;4.75;;;2.58;;
23634;SDS011;11994;51.038;16.974;2022-08-01T11:58:15;3.60;;;2.50;;
23634;SDS011;11994;51.038;16.974;2022-08-01T12:00:54;4.78;;;2.75;;
23634;SDS011;11994;51.038;16.974;2022-08-01T12:03:30;4.50;;;2.27;;
23634;SDS011;11994;51.038;16.974;2022-08-01T12:05:58;4.70;;;2.55;;
23634;SDS011;11994;51.038;16.974;2022-08-01T12:08:27;7.47;;;2.40;;
23634;SDS011;11994;51.038;16.974;2022-08-01T12:11:02;4.15;;;2.42;;
23634;SDS011;11994;51.038;16.974;2022-08-01T12:13:40;5.37;;;2.55;;
23634;SDS011;11994;51.038;16.974;2022-08-01T12:16:08;4.08;;;2.22;;
23634;SDS011;11994;51.038;16.974;2022-08-01T12:18:42;5.10;;;2.80;;
23634;SDS011;11994;51.038;16.974;2022-08-01T12:21:08;3.95;;;2.20;;
23634;SDS011;11994;51.038;16.974;2022-08-01T12:23:34;3.58;;;2.17;;
23634;SDS011;11994;51.038;16.974;2022-08-01T12:26:00;3.40;;;2.17;;
23634;SDS011;11994;51.038;16.974;2022-08-01T12:28:26;4.45;;;2.25;;
23634;SDS011;11994;51.038;16.974;2022-08-01T12:30:52;4.83;;;2.20;;
23634;SDS011;11994;51.038;16.974;2022-08-01T12:33:19;4.95;;;2.25;;
23634;SDS011;11994;51.038;16.974;2022-08-01T12:35:46;3.37;;;2.12;;
23634;SDS011;11994;51.038;16.974;2022-08-01T12:38:17;2.77;;;1.90;;
23634;SDS011;11994;51.038;16.974;2022-08-01T12:40:48;3.52;;;2.30;;
23634;SDS011;11994;51.038;16.974;2022-08-01T12:43:16;3.58;;;2.30;;
23634;SDS011;11994;51.038;16.974;2022-08-01T12:45:44;3.37;;;1.90;;
23634;SDS011;11994;51.038;16.974;2022-08-01T12:48:13;4.65;;;2.10;;
23634;SDS011;11994;51.038;16.974;2022-08-01T12:50:43;3.10;;;1.72;;
23634;SDS011;11994;51.038;16.974;2022-08-01T12:53:12;3.70;;;1.70;;
23634;SDS011;11994;51.038;16.974;2022-08-01T12:55:46;3.42;;;1.70;;
23634;SDS011;11994;51.038;16.974;2022-08-01T12:58:15;5.62;;;2.00;;
23634;SDS011;11994;51.038;16.974;2022-08-01T13:00:44;4.55;;;1.98;;
23634;SDS011;11994;51.038;16.974;2022-08-01T13:03:14;5.75;;;2.30;;
23634;SDS011;11994;51.038;16.974;2022-08-01T13:05:53;5.12;;;2.10;;
23634;SDS011;11994;51.038;16.974;2022-08-01T13:08:22;3.40;;;2.00;;
23634;SDS011;11994;51.038;16.974;2022-08-01T13:11:15;5.70;;;2.27;;
23634;SDS011;11994;51.038;16.974;2022-08-01T13:13:43;8.20;;;2.70;;
23634;SDS011;11994;51.038;16.974;2022-08-01T13:16:13;5.15;;;2.55;;
23634;SDS011;11994;51.038;16.974;2022-08-01T13:18:47;7.75;;;2.45;;
23634;SDS011;11994;51.038;16.974;2022-08-01T13:21:22;5.75;;;1.80;;
23634;SDS011;11994;51.038;16.974;2022-08-01T13:24:04;2.90;;;2.10;;
23634;SDS011;11994;51.038;16.974;2022-08-01T13:29:21;4.22;;;2.10;;
23634;SDS011;11994;51.038;16.974;2022-08-01T13:32:12;3.60;;;2.60;;
23634;SDS011;11994;51.038;16.974;2022-08-01T13:34:44;4.78;;;2.50;;
23634;SDS011;11994;51.038;16.974;2022-08-01T13:37:10;2.90;;;2.50;;
23634;SDS011;11994;51.038;16.974;2022-08-01T13:39:36;3.67;;;2.42;;
23634;SDS011;11994;51.038;16.974;2022-08-01T13:42:15;4.60;;;2.52;;
23634;SDS011;11994;51.038;16.974;2022-08-01T13:44:42;3.52;;;2.40;;
23634;SDS011;11994;51.038;16.974;2022-08-01T13:47:11;3.87;;;2.10;;
23634;SDS011;11994;51.038;16.974;2022-08-01T13:49:37;2.60;;;1.82;;
23634;SDS011;11994;51.038;16.974;2022-08-01T13:52:04;3.30;;;1.50;;
23634;SDS011;11994;51.038;16.974;2022-08-01T13:54:31;3.65;;;1.57;;
23634;SDS011;11994;51.038;16.974;2022-08-01T13:56:58;4.15;;;1.87;;
23634;SDS011;11994;51.038;16.974;2022-08-01T13:59:24;5.47;;;2.30;;
23634;SDS011;11994;51.038;16.974;2022-08-01T14:01:50;4.42;;;1.77;;
23634;SDS011;11994;51.038;16.974;2022-08-01T14:04:16;2.95;;;1.67;;
23634;SDS011;11994;51.038;16.974;2022-08-01T14:06:42;2.27;;;1.35;;
23634;SDS011;11994;51.038;16.974;2022-08-01T14:09:08;4.05;;;1.42;;
23634;SDS011;11994;51.038;16.974;2022-08-01T14:11:34;3.35;;;1.70;;
23634;SDS011;11994;51.038;16.974;2022-08-01T14:14:00;4.60;;;1.57;;
23634;SDS011;11994;51.038;16.974;2022-08-01T14:16:26;2.90;;;1.65;;
23634;SDS011;11994;51.038;16.974;2022-08-01T14:18:52;5.25;;;1.98;;
23634;SDS011;11994;51.038;16.974;2022-08-01T14:21:18;4.03;;;1.60;;
23634;SDS011;11994;51.038;16.974;2022-08-01T14:23:44;3.67;;;1.60;;
23634;SDS011;11994;51.038;16.974;2022-08-01T14:26:10;4.35;;;1.70;;
23634;SDS011;11994;51.038;16.974;2022-08-01T14:28:36;2.95;;;1.70;;
23634;SDS011;11994;51.038;16.974;2022-08-01T14:31:03;2.42;;;1.70;;
23634;SDS011;11994;51.038;16.974;2022-08-01T14:33:31;2.30;;;1.80;;
23634;SDS011;11994;51.038;16.974;2022-08-01T14:35:57;3.12;;;1.87;;
23634;SDS011;11994;51.038;16.974;2022-08-01T14:38:23;4.28;;;2.10;;
23634;SDS011;11994;51.038;16.974;2022-08-01T14:40:49;4.62;;;1.98;;
23634;SDS011;11994;51.038;16.974;2022-08-01T14:43:18;2.37;;;1.90;;
23634;SDS011;11994;51.038;16.974;2022-08-01T14:45:45;4.42;;;2.27;;
23634;SDS011;11994;51.038;16.974;2022-08-01T14:48:14;3.12;;;2.00;;
23634;SDS011;11994;51.038;16.974;2022-08-01T14:50:42;4.87;;;1.75;;
23634;SDS011;11994;51.038;16.974;2022-08-01T14:53:08;4.03;;;2.40;;
23634;SDS011;11994;51.038;16.974;2022-08-01T14:55:34;2.60;;;1.60;;
23634;SDS011;11994;51.038;16.974;2022-08-01T14:58:00;4.08;;;1.52;;
23634;SDS011;11994;51.038;16.974;2022-08-01T15:00:26;2.77;;;1.60;;
23634;SDS011;11994;51.038;16.974;2022-08-01T15:02:52;2.20;;;1.60;;
23634;SDS011;11994;51.038;16.974;2022-08-01T15:05:17;3.83;;;1.98;;
23634;SDS011;11994;51.038;16.974;2022-08-01T15:07:43;7.28;;;2.00;;
23634;SDS011;11994;51.038;16.974;2022-08-01T15:10:09;4.55;;;1.65;;
23634;SDS011;11994;51.038;16.974;2022-08-01T15:12:35;4.55;;;2.75;;
23634;SDS011;11994;51.038;16.974;2022-08-01T15:15:01;3.08;;;1.82;;
23634;SDS011;11994;51.038;16.974;2022-08-01T15:17:29;2.52;;;1.60;;
23634;SDS011;11994;51.038;16.974;2022-08-01T15:19:58;3.70;;;1.90;;
23634;SDS011;11994;51.038;16.974;2022-08-01T15:22:28;4.40;;;2.08;;
23634;SDS011;11994;51.038;16.974;2022-08-01T15:24:55;3.08;;;1.65;;